sensor_id;sensor_type;location;lat;lon;timestamp;P1;durP1;ratioP1;P2;durP2;ratioP2
51190;SDS011;37253;48.736;9.294;2023-06-22T00:01:00;4.80;;;4.13;;
51190;SDS011;37253;48.736;9.294;2023-06-22T00:03:01;5.15;;;4.65;;
51190;SDS011;37253;48.736;9.294;2023-06-22T00:05:01;5.05;;;4.55;;
51190;SDS011;37253;48.736;9.294;2023-06-22T00:07:01;4.57;;;4.18;;
51190;SDS011;37253;48.736;9.294;2023-06-22T00:09:02;5.13;;;4.65;;
51190;SDS011;37253;48.736;9.294;2023-06-22T00:11:03;4.57;;;4.10;;
51190;SDS011;37253;48.736;9.294;2023-06-22T00:13:03;4.97;;;4.47;;
51190;SDS011;37253;48.736;9.294;2023-06-22T00:15:05;4.88;;;4.13;;
51190;SDS011;37253;48.736;9.294;2023-06-22T00:17:06;5.53;;;4.95;;
51190;SDS011;37253;48.736;9.294;2023-06-22T00:19:06;5.82;;;4.60;;
51190;SDS011;37253;48.736;9.294;2023-06-22T00:21:06;4.90;;;4.10;;
51190;SDS011;37253;48.736;9.294;2023-06-22T00:23:08;4.72;;;4.32;;
51190;SDS011;37253;48.736;9.294;2023-06-22T00:25:08;4.45;;;3.95;;
51190;SDS011;37253;48.736;9.294;2023-06-22T00:27:09;5.03;;;4.32;;
51190;SDS011;37253;48.736;9.294;2023-06-22T00:29:09;4.68;;;4.28;;
51190;SDS011;37253;48.736;9.294;2023-06-22T00:31:10;6.15;;;4.57;;
51190;SDS011;37253;48.736;9.294;2023-06-22T00:33:10;4.75;;;4.30;;
51190;SDS011;37253;48.736;9.294;2023-06-22T00:35:11;4.78;;;3.97;;
51190;SDS011;37253;48.736;9.294;2023-06-22T00:37:12;5.10;;;4.43;;
51190;SDS011;37253;48.736;9.294;2023-06-22T00:39:13;4.60;;;4.20;;
51190;SDS011;37253;48.736;9.294;2023-06-22T00:41:13;4.43;;;4.03;;
51190;SDS011;37253;48.736;9.294;2023-06-22T00:43:13;5.00;;;3.95;;
51190;SDS011;37253;48.736;9.294;2023-06-22T00:45:14;4.30;;;3.92;;
51190;SDS011;37253;48.736;9.294;2023-06-22T00:47:15;4.75;;;4.25;;
51190;SDS011;37253;48.736;9.294;2023-06-22T00:49:17;4.10;;;3.80;;
51190;SDS011;37253;48.736;9.294;2023-06-22T00:51:18;5.05;;;4.55;;
51190;SDS011;37253;48.736;9.294;2023-06-22T00:53:20;5.00;;;4.45;;
51190;SDS011;37253;48.736;9.294;2023-06-22T00:55:20;5.05;;;4.47;;
51190;SDS011;37253;48.736;9.294;2023-06-22T00:57:21;5.13;;;4.15;;
51190;SDS011;37253;48.736;9.294;2023-06-22T00:59:22;4.90;;;4.50;;
51190;SDS011;37253;48.736;9.294;2023-06-22T01:01:23;4.75;;;4.20;;
51190;SDS011;37253;48.736;9.294;2023-06-22T01:03:23;5.13;;;4.70;;
51190;SDS011;37253;48.736;9.294;2023-06-22T01:05:24;4.50;;;4.10;;
51190;SDS011;37253;48.736;9.294;2023-06-22T01:09:32;4.00;;;3.70;;
51190;SDS011;37253;48.736;9.294;2023-06-22T01:11:36;5.15;;;4.75;;
51190;SDS011;37253;48.736;9.294;2023-06-22T01:17:57;4.67;;;4.03;;
51190;SDS011;37253;48.736;9.294;2023-06-22T01:19:59;4.45;;;3.97;;
51190;SDS011;37253;48.736;9.294;2023-06-22T01:22:00;4.30;;;3.90;;
51190;SDS011;37253;48.736;9.294;2023-06-22T01:24:06;4.68;;;4.28;;
51190;SDS011;37253;48.736;9.294;2023-06-22T01:28:55;4.75;;;4.25;;
51190;SDS011;37253;48.736;9.294;2023-06-22T01:30:57;4.80;;;4.10;;
51190;SDS011;37253;48.736;9.294;2023-06-22T01:33:05;4.60;;;4.20;;
51190;SDS011;37253;48.736;9.294;2023-06-22T01:35:06;4.95;;;4.47;;
51190;SDS011;37253;48.736;9.294;2023-06-22T01:37:07;4.50;;;4.10;;
51190;SDS011;37253;48.736;9.294;2023-06-22T01:39:08;5.47;;;4.53;;
51190;SDS011;37253;48.736;9.294;2023-06-22T01:41:09;4.70;;;4.15;;
51190;SDS011;37253;48.736;9.294;2023-06-22T01:43:09;4.47;;;3.92;;
51190;SDS011;37253;48.736;9.294;2023-06-22T01:45:10;4.60;;;4.20;;
51190;SDS011;37253;48.736;9.294;2023-06-22T01:47:11;4.32;;;3.97;;
51190;SDS011;37253;48.736;9.294;2023-06-22T01:49:13;4.78;;;4.35;;
51190;SDS011;37253;48.736;9.294;2023-06-22T01:51:14;4.72;;;4.15;;
51190;SDS011;37253;48.736;9.294;2023-06-22T01:53:15;4.28;;;3.80;;
51190;SDS011;37253;48.736;9.294;2023-06-22T01:55:15;4.30;;;3.90;;
51190;SDS011;37253;48.736;9.294;2023-06-22T01:57:15;4.45;;;3.92;;
51190;SDS011;37253;48.736;9.294;2023-06-22T01:59:32;4.55;;;3.65;;
51190;SDS011;37253;48.736;9.294;2023-06-22T02:01:48;4.65;;;4.25;;
51190;SDS011;37253;48.736;9.294;2023-06-22T02:03:58;4.65;;;4.00;;
51190;SDS011;37253;48.736;9.294;2023-06-22T02:06:23;4.25;;;3.83;;
51190;SDS011;37253;48.736;9.294;2023-06-22T02:08:28;4.30;;;3.90;;
51190;SDS011;37253;48.736;9.294;2023-06-22T02:10:30;4.65;;;4.25;;
51190;SDS011;37253;48.736;9.294;2023-06-22T02:12:31;4.50;;;4.10;;
51190;SDS011;37253;48.736;9.294;2023-06-22T02:14:32;4.40;;;4.00;;
51190;SDS011;37253;48.736;9.294;2023-06-22T02:16:34;4.63;;;4.15;;
51190;SDS011;37253;48.736;9.294;2023-06-22T02:18:35;4.60;;;4.20;;
51190;SDS011;37253;48.736;9.294;2023-06-22T02:20:37;4.05;;;3.75;;
51190;SDS011;37253;48.736;9.294;2023-06-22T02:22:37;5.45;;;3.75;;
51190;SDS011;37253;48.736;9.294;2023-06-22T02:24:38;4.88;;;4.30;;
51190;SDS011;37253;48.736;9.294;2023-06-22T02:26:38;4.13;;;3.75;;
51190;SDS011;37253;48.736;9.294;2023-06-22T02:28:39;4.65;;;4.25;;
51190;SDS011;37253;48.736;9.294;2023-06-22T02:30:40;4.10;;;3.70;;
51190;SDS011;37253;48.736;9.294;2023-06-22T02:32:40;4.07;;;3.70;;
51190;SDS011;37253;48.736;9.294;2023-06-22T02:34:42;5.78;;;4.35;;
51190;SDS011;37253;48.736;9.294;2023-06-22T02:36:42;4.57;;;3.83;;
51190;SDS011;37253;48.736;9.294;2023-06-22T02:38:50;3.95;;;3.65;;
51190;SDS011;37253;48.736;9.294;2023-06-22T02:40:50;4.80;;;4.30;;
51190;SDS011;37253;48.736;9.294;2023-06-22T02:42:51;4.80;;;3.97;;
51190;SDS011;37253;48.736;9.294;2023-06-22T02:44:51;4.15;;;3.83;;
51190;SDS011;37253;48.736;9.294;2023-06-22T02:46:51;4.88;;;4.38;;
51190;SDS011;37253;48.736;9.294;2023-06-22T02:48:52;4.22;;;3.92;;
51190;SDS011;37253;48.736;9.294;2023-06-22T02:50:52;4.28;;;3.70;;
51190;SDS011;37253;48.736;9.294;2023-06-22T02:52:52;4.75;;;4.03;;
51190;SDS011;37253;48.736;9.294;2023-06-22T02:54:53;4.55;;;4.15;;
51190;SDS011;37253;48.736;9.294;2023-06-22T02:56:53;3.90;;;3.60;;
51190;SDS011;37253;48.736;9.294;2023-06-22T02:58:54;4.43;;;4.03;;
51190;SDS011;37253;48.736;9.294;2023-06-22T03:00:54;4.57;;;3.92;;
51190;SDS011;37253;48.736;9.294;2023-06-22T03:02:54;4.05;;;3.65;;
51190;SDS011;37253;48.736;9.294;2023-06-22T03:04:55;4.20;;;3.80;;
51190;SDS011;37253;48.736;9.294;2023-06-22T03:06:55;3.97;;;3.58;;
51190;SDS011;37253;48.736;9.294;2023-06-22T03:08:58;4.20;;;3.80;;
51190;SDS011;37253;48.736;9.294;2023-06-22T03:10:59;4.20;;;3.80;;
51190;SDS011;37253;48.736;9.294;2023-06-22T03:13:00;4.50;;;4.10;;
51190;SDS011;37253;48.736;9.294;2023-06-22T03:15:00;4.28;;;3.95;;
51190;SDS011;37253;48.736;9.294;2023-06-22T03:17:00;4.45;;;4.05;;
51190;SDS011;37253;48.736;9.294;2023-06-22T03:19:03;3.90;;;3.60;;
51190;SDS011;37253;48.736;9.294;2023-06-22T03:21:03;4.40;;;4.00;;
51190;SDS011;37253;48.736;9.294;2023-06-22T03:23:03;4.50;;;4.10;;
51190;SDS011;37253;48.736;9.294;2023-06-22T03:25:04;4.60;;;4.20;;
51190;SDS011;37253;48.736;9.294;2023-06-22T03:27:10;4.30;;;3.90;;
51190;SDS011;37253;48.736;9.294;2023-06-22T03:29:10;4.15;;;3.85;;
51190;SDS011;37253;48.736;9.294;2023-06-22T03:31:10;3.70;;;3.40;;
51190;SDS011;37253;48.736;9.294;2023-06-22T03:33:11;4.05;;;3.75;;
51190;SDS011;37253;48.736;9.294;2023-06-22T03:35:11;4.00;;;3.60;;
51190;SDS011;37253;48.736;9.294;2023-06-22T03:37:14;4.22;;;3.83;;
51190;SDS011;37253;48.736;9.294;2023-06-22T03:39:14;4.20;;;3.80;;
51190;SDS011;37253;48.736;9.294;2023-06-22T03:41:15;4.80;;;4.30;;
51190;SDS011;37253;48.736;9.294;2023-06-22T03:43:15;4.75;;;4.30;;
51190;SDS011;37253;48.736;9.294;2023-06-22T03:45:15;4.47;;;4.10;;
51190;SDS011;37253;48.736;9.294;2023-06-22T03:47:16;5.40;;;3.63;;
51190;SDS011;37253;48.736;9.294;2023-06-22T03:49:17;4.07;;;3.78;;
51190;SDS011;37253;48.736;9.294;2023-06-22T03:51:17;3.75;;;3.45;;
51190;SDS011;37253;48.736;9.294;2023-06-22T03:53:18;4.03;;;3.70;;
51190;SDS011;37253;48.736;9.294;2023-06-22T03:55:21;4.10;;;3.80;;
51190;SDS011;37253;48.736;9.294;2023-06-22T03:57:21;4.18;;;3.78;;
51190;SDS011;37253;48.736;9.294;2023-06-22T03:59:22;4.40;;;4.00;;
51190;SDS011;37253;48.736;9.294;2023-06-22T04:01:22;4.72;;;4.22;;
51190;SDS011;37253;48.736;9.294;2023-06-22T04:03:22;4.10;;;3.70;;
51190;SDS011;37253;48.736;9.294;2023-06-22T04:05:23;4.45;;;3.63;;
51190;SDS011;37253;48.736;9.294;2023-06-22T04:07:24;4.03;;;3.70;;
51190;SDS011;37253;48.736;9.294;2023-06-22T04:09:24;4.05;;;3.65;;
51190;SDS011;37253;48.736;9.294;2023-06-22T04:11:25;4.40;;;3.92;;
51190;SDS011;37253;48.736;9.294;2023-06-22T04:13:25;6.15;;;3.78;;
51190;SDS011;37253;48.736;9.294;2023-06-22T04:15:25;4.53;;;3.95;;
51190;SDS011;37253;48.736;9.294;2023-06-22T04:17:26;5.38;;;4.55;;
51190;SDS011;37253;48.736;9.294;2023-06-22T04:19:26;5.70;;;4.40;;
51190;SDS011;37253;48.736;9.294;2023-06-22T04:21:26;5.47;;;4.97;;
51190;SDS011;37253;48.736;9.294;2023-06-22T04:23:27;8.35;;;4.80;;
51190;SDS011;37253;48.736;9.294;2023-06-22T04:25:27;5.35;;;4.85;;
51190;SDS011;37253;48.736;9.294;2023-06-22T04:27:27;6.15;;;4.60;;
51190;SDS011;37253;48.736;9.294;2023-06-22T04:29:28;7.63;;;5.35;;
51190;SDS011;37253;48.736;9.294;2023-06-22T04:31:30;7.20;;;4.97;;
51190;SDS011;37253;48.736;9.294;2023-06-22T04:33:31;6.53;;;4.68;;
51190;SDS011;37253;48.736;9.294;2023-06-22T04:35:32;8.93;;;5.38;;
51190;SDS011;37253;48.736;9.294;2023-06-22T04:37:32;8.32;;;4.38;;
51190;SDS011;37253;48.736;9.294;2023-06-22T04:39:33;9.13;;;5.00;;
51190;SDS011;37253;48.736;9.294;2023-06-22T04:41:33;8.00;;;4.40;;
51190;SDS011;37253;48.736;9.294;2023-06-22T04:43:41;9.02;;;5.03;;
51190;SDS011;37253;48.736;9.294;2023-06-22T04:45:42;7.65;;;5.18;;
51190;SDS011;37253;48.736;9.294;2023-06-22T04:47:42;6.20;;;4.53;;
51190;SDS011;37253;48.736;9.294;2023-06-22T04:49:42;11.27;;;5.00;;
51190;SDS011;37253;48.736;9.294;2023-06-22T04:51:43;8.23;;;4.70;;
51190;SDS011;37253;48.736;9.294;2023-06-22T04:53:43;9.07;;;4.53;;
51190;SDS011;37253;48.736;9.294;2023-06-22T04:55:43;6.57;;;4.75;;
51190;SDS011;37253;48.736;9.294;2023-06-22T04:57:45;10.38;;;4.72;;
51190;SDS011;37253;48.736;9.294;2023-06-22T04:59:49;10.68;;;4.80;;
51190;SDS011;37253;48.736;9.294;2023-06-22T05:01:49;5.78;;;5.15;;
51190;SDS011;37253;48.736;9.294;2023-06-22T05:03:51;5.82;;;4.63;;
51190;SDS011;37253;48.736;9.294;2023-06-22T05:05:55;6.75;;;5.07;;
51190;SDS011;37253;48.736;9.294;2023-06-22T05:07:56;12.10;;;5.07;;
51190;SDS011;37253;48.736;9.294;2023-06-22T05:10:00;6.93;;;5.00;;
51190;SDS011;37253;48.736;9.294;2023-06-22T05:12:01;6.43;;;5.32;;
51190;SDS011;37253;48.736;9.294;2023-06-22T05:14:03;7.35;;;5.20;;
51190;SDS011;37253;48.736;9.294;2023-06-22T05:16:03;8.23;;;5.13;;
51190;SDS011;37253;48.736;9.294;2023-06-22T05:18:03;11.05;;;5.32;;
51190;SDS011;37253;48.736;9.294;2023-06-22T05:20:05;6.03;;;4.90;;
51190;SDS011;37253;48.736;9.294;2023-06-22T05:22:06;7.70;;;5.30;;
51190;SDS011;37253;48.736;9.294;2023-06-22T05:24:07;9.30;;;5.28;;
51190;SDS011;37253;48.736;9.294;2023-06-22T05:26:07;9.00;;;5.38;;
51190;SDS011;37253;48.736;9.294;2023-06-22T05:28:09;7.47;;;4.50;;
51190;SDS011;37253;48.736;9.294;2023-06-22T05:30:11;9.23;;;4.80;;
51190;SDS011;37253;48.736;9.294;2023-06-22T05:32:11;8.90;;;4.70;;
51190;SDS011;37253;48.736;9.294;2023-06-22T05:34:11;9.35;;;4.70;;
51190;SDS011;37253;48.736;9.294;2023-06-22T05:36:12;9.60;;;4.85;;
51190;SDS011;37253;48.736;9.294;2023-06-22T05:38:13;10.38;;;4.43;;
51190;SDS011;37253;48.736;9.294;2023-06-22T05:40:13;11.48;;;4.93;;
51190;SDS011;37253;48.736;9.294;2023-06-22T05:42:14;19.92;;;6.53;;
51190;SDS011;37253;48.736;9.294;2023-06-22T05:44:14;23.35;;;6.57;;
51190;SDS011;37253;48.736;9.294;2023-06-22T05:46:14;25.98;;;7.25;;
51190;SDS011;37253;48.736;9.294;2023-06-22T05:48:15;31.23;;;7.43;;
51190;SDS011;37253;48.736;9.294;2023-06-22T05:50:15;16.63;;;5.97;;
51190;SDS011;37253;48.736;9.294;2023-06-22T05:52:15;17.20;;;5.45;;
51190;SDS011;37253;48.736;9.294;2023-06-22T05:54:16;15.57;;;5.50;;
51190;SDS011;37253;48.736;9.294;2023-06-22T05:56:18;17.30;;;6.00;;
51190;SDS011;37253;48.736;9.294;2023-06-22T05:58:18;13.07;;;5.07;;
51190;SDS011;37253;48.736;9.294;2023-06-22T06:00:18;46.20;;;6.03;;
51190;SDS011;37253;48.736;9.294;2023-06-22T06:02:19;19.90;;;5.60;;
51190;SDS011;37253;48.736;9.294;2023-06-22T06:04:20;13.90;;;5.45;;
51190;SDS011;37253;48.736;9.294;2023-06-22T06:06:20;10.43;;;5.35;;
51190;SDS011;37253;48.736;9.294;2023-06-22T06:08:21;15.80;;;5.45;;
51190;SDS011;37253;48.736;9.294;2023-06-22T06:10:21;16.05;;;5.70;;
51190;SDS011;37253;48.736;9.294;2023-06-22T06:12:21;13.75;;;5.05;;
51190;SDS011;37253;48.736;9.294;2023-06-22T06:14:22;9.45;;;4.78;;
51190;SDS011;37253;48.736;9.294;2023-06-22T06:16:22;10.60;;;5.05;;
51190;SDS011;37253;48.736;9.294;2023-06-22T06:18:23;10.18;;;4.47;;
51190;SDS011;37253;48.736;9.294;2023-06-22T06:20:24;8.63;;;4.90;;
51190;SDS011;37253;48.736;9.294;2023-06-22T06:22:25;7.10;;;4.67;;
51190;SDS011;37253;48.736;9.294;2023-06-22T06:24:26;6.95;;;4.35;;
51190;SDS011;37253;48.736;9.294;2023-06-22T06:26:26;7.53;;;4.75;;
51190;SDS011;37253;48.736;9.294;2023-06-22T06:28:29;9.40;;;4.20;;
51190;SDS011;37253;48.736;9.294;2023-06-22T06:30:29;8.40;;;4.50;;
51190;SDS011;37253;48.736;9.294;2023-06-22T06:32:30;9.27;;;4.38;;
51190;SDS011;37253;48.736;9.294;2023-06-22T06:34:30;11.20;;;4.75;;
51190;SDS011;37253;48.736;9.294;2023-06-22T06:36:30;8.40;;;4.47;;
51190;SDS011;37253;48.736;9.294;2023-06-22T06:38:31;9.23;;;5.05;;
51190;SDS011;37253;48.736;9.294;2023-06-22T06:40:31;7.68;;;4.38;;
51190;SDS011;37253;48.736;9.294;2023-06-22T06:42:32;12.15;;;4.60;;
51190;SDS011;37253;48.736;9.294;2023-06-22T06:44:32;7.50;;;4.35;;
51190;SDS011;37253;48.736;9.294;2023-06-22T06:46:32;6.95;;;4.07;;
51190;SDS011;37253;48.736;9.294;2023-06-22T06:48:33;9.85;;;4.32;;
51190;SDS011;37253;48.736;9.294;2023-06-22T06:50:33;6.35;;;4.22;;
51190;SDS011;37253;48.736;9.294;2023-06-22T06:52:33;13.18;;;4.45;;
51190;SDS011;37253;48.736;9.294;2023-06-22T06:54:34;8.57;;;4.22;;
51190;SDS011;37253;48.736;9.294;2023-06-22T06:56:34;5.75;;;4.32;;
51190;SDS011;37253;48.736;9.294;2023-06-22T06:58:35;8.25;;;4.70;;
51190;SDS011;37253;48.736;9.294;2023-06-22T07:00:36;8.50;;;4.10;;
51190;SDS011;37253;48.736;9.294;2023-06-22T07:02:40;8.65;;;4.60;;
51190;SDS011;37253;48.736;9.294;2023-06-22T07:04:44;9.77;;;4.28;;
51190;SDS011;37253;48.736;9.294;2023-06-22T07:06:44;7.68;;;3.90;;
51190;SDS011;37253;48.736;9.294;2023-06-22T07:08:45;8.10;;;4.05;;
51190;SDS011;37253;48.736;9.294;2023-06-22T07:10:45;4.90;;;3.88;;
51190;SDS011;37253;48.736;9.294;2023-06-22T07:12:45;6.57;;;3.95;;
51190;SDS011;37253;48.736;9.294;2023-06-22T07:14:46;7.90;;;3.90;;
51190;SDS011;37253;48.736;9.294;2023-06-22T07:16:46;5.70;;;4.28;;
51190;SDS011;37253;48.736;9.294;2023-06-22T07:18:47;6.68;;;3.88;;
51190;SDS011;37253;48.736;9.294;2023-06-22T07:20:47;7.53;;;4.00;;
51190;SDS011;37253;48.736;9.294;2023-06-22T07:22:47;4.32;;;3.55;;
51190;SDS011;37253;48.736;9.294;2023-06-22T07:24:48;8.80;;;3.67;;
51190;SDS011;37253;48.736;9.294;2023-06-22T07:26:49;5.85;;;4.22;;
51190;SDS011;37253;48.736;9.294;2023-06-22T07:28:50;6.53;;;3.50;;
51190;SDS011;37253;48.736;9.294;2023-06-22T07:30:50;3.65;;;3.35;;
51190;SDS011;37253;48.736;9.294;2023-06-22T07:32:51;5.22;;;4.05;;
51190;SDS011;37253;48.736;9.294;2023-06-22T07:34:51;6.05;;;3.95;;
51190;SDS011;37253;48.736;9.294;2023-06-22T07:36:51;7.63;;;3.50;;
51190;SDS011;37253;48.736;9.294;2023-06-22T07:38:52;6.53;;;3.67;;
51190;SDS011;37253;48.736;9.294;2023-06-22T07:40:52;6.45;;;3.83;;
51190;SDS011;37253;48.736;9.294;2023-06-22T07:42:53;5.10;;;3.80;;
51190;SDS011;37253;48.736;9.294;2023-06-22T07:44:53;7.43;;;3.60;;
51190;SDS011;37253;48.736;9.294;2023-06-22T07:46:54;4.47;;;3.45;;
51190;SDS011;37253;48.736;9.294;2023-06-22T07:48:55;6.72;;;3.70;;
51190;SDS011;37253;48.736;9.294;2023-06-22T07:50:55;8.63;;;3.63;;
51190;SDS011;37253;48.736;9.294;2023-06-22T07:52:55;6.47;;;3.65;;
51190;SDS011;37253;48.736;9.294;2023-06-22T07:54:56;5.47;;;3.75;;
51190;SDS011;37253;48.736;9.294;2023-06-22T07:56:56;5.35;;;3.47;;
51190;SDS011;37253;48.736;9.294;2023-06-22T07:58:56;6.07;;;3.50;;
51190;SDS011;37253;48.736;9.294;2023-06-22T08:00:59;5.50;;;3.30;;
51190;SDS011;37253;48.736;9.294;2023-06-22T08:02:59;4.35;;;3.40;;
51190;SDS011;37253;48.736;9.294;2023-06-22T08:04:59;5.05;;;3.90;;
51190;SDS011;37253;48.736;9.294;2023-06-22T08:07:00;4.68;;;3.40;;
51190;SDS011;37253;48.736;9.294;2023-06-22T08:09:01;7.43;;;4.03;;
51190;SDS011;37253;48.736;9.294;2023-06-22T08:11:01;6.45;;;3.78;;
51190;SDS011;37253;48.736;9.294;2023-06-22T08:13:02;6.85;;;3.35;;
51190;SDS011;37253;48.736;9.294;2023-06-22T08:15:02;6.72;;;3.90;;
51190;SDS011;37253;48.736;9.294;2023-06-22T08:17:03;8.60;;;3.83;;
51190;SDS011;37253;48.736;9.294;2023-06-22T08:19:03;6.55;;;3.72;;
51190;SDS011;37253;48.736;9.294;2023-06-22T08:21:03;5.88;;;3.20;;
51190;SDS011;37253;48.736;9.294;2023-06-22T08:23:04;4.20;;;3.35;;
51190;SDS011;37253;48.736;9.294;2023-06-22T08:25:06;5.10;;;3.58;;
51190;SDS011;37253;48.736;9.294;2023-06-22T08:27:07;6.43;;;3.58;;
51190;SDS011;37253;48.736;9.294;2023-06-22T08:29:13;6.05;;;3.45;;
51190;SDS011;37253;48.736;9.294;2023-06-22T08:31:14;5.22;;;3.60;;
51190;SDS011;37253;48.736;9.294;2023-06-22T08:33:15;5.18;;;3.78;;
51190;SDS011;37253;48.736;9.294;2023-06-22T08:35:15;6.63;;;3.47;;
51190;SDS011;37253;48.736;9.294;2023-06-22T08:37:16;8.00;;;4.15;;
51190;SDS011;37253;48.736;9.294;2023-06-22T08:39:16;8.20;;;3.83;;
51190;SDS011;37253;48.736;9.294;2023-06-22T08:41:17;6.55;;;3.55;;
51190;SDS011;37253;48.736;9.294;2023-06-22T08:43:17;5.82;;;3.38;;
51190;SDS011;37253;48.736;9.294;2023-06-22T08:45:18;6.82;;;3.60;;
51190;SDS011;37253;48.736;9.294;2023-06-22T08:47:19;5.93;;;3.60;;
51190;SDS011;37253;48.736;9.294;2023-06-22T08:49:20;5.72;;;3.45;;
51190;SDS011;37253;48.736;9.294;2023-06-22T08:51:20;6.53;;;4.13;;
51190;SDS011;37253;48.736;9.294;2023-06-22T08:53:20;5.45;;;3.30;;
51190;SDS011;37253;48.736;9.294;2023-06-22T08:55:21;8.40;;;3.33;;
51190;SDS011;37253;48.736;9.294;2023-06-22T08:57:21;5.30;;;3.03;;
51190;SDS011;37253;48.736;9.294;2023-06-22T08:59:21;4.90;;;3.40;;
51190;SDS011;37253;48.736;9.294;2023-06-22T09:01:22;7.97;;;3.92;;
51190;SDS011;37253;48.736;9.294;2023-06-22T09:03:22;6.68;;;3.47;;
51190;SDS011;37253;48.736;9.294;2023-06-22T09:05:26;7.55;;;3.63;;
51190;SDS011;37253;48.736;9.294;2023-06-22T09:07:26;5.10;;;3.22;;
51190;SDS011;37253;48.736;9.294;2023-06-22T09:09:26;5.32;;;3.58;;
51190;SDS011;37253;48.736;9.294;2023-06-22T09:11:27;6.05;;;4.10;;
51190;SDS011;37253;48.736;9.294;2023-06-22T09:13:30;7.22;;;3.65;;
51190;SDS011;37253;48.736;9.294;2023-06-22T09:15:31;8.02;;;3.92;;
51190;SDS011;37253;48.736;9.294;2023-06-22T09:17:31;5.60;;;3.70;;
51190;SDS011;37253;48.736;9.294;2023-06-22T09:19:32;9.15;;;3.50;;
51190;SDS011;37253;48.736;9.294;2023-06-22T09:21:33;7.10;;;3.38;;
51190;SDS011;37253;48.736;9.294;2023-06-22T09:23:33;5.97;;;3.35;;
51190;SDS011;37253;48.736;9.294;2023-06-22T09:25:33;7.07;;;3.60;;
51190;SDS011;37253;48.736;9.294;2023-06-22T09:27:34;5.88;;;3.33;;
51190;SDS011;37253;48.736;9.294;2023-06-22T09:29:34;6.50;;;3.30;;
51190;SDS011;37253;48.736;9.294;2023-06-22T09:31:34;8.60;;;3.72;;
51190;SDS011;37253;48.736;9.294;2023-06-22T09:33:35;5.45;;;3.75;;
51190;SDS011;37253;48.736;9.294;2023-06-22T09:35:36;8.00;;;3.45;;
51190;SDS011;37253;48.736;9.294;2023-06-22T09:37:36;8.02;;;3.72;;
51190;SDS011;37253;48.736;9.294;2023-06-22T09:39:36;5.80;;;3.42;;
51190;SDS011;37253;48.736;9.294;2023-06-22T09:41:37;7.53;;;3.15;;
51190;SDS011;37253;48.736;9.294;2023-06-22T09:43:37;7.97;;;3.70;;
51190;SDS011;37253;48.736;9.294;2023-06-22T09:45:37;5.00;;;3.38;;
51190;SDS011;37253;48.736;9.294;2023-06-22T09:47:38;6.43;;;3.70;;
51190;SDS011;37253;48.736;9.294;2023-06-22T09:49:38;7.00;;;3.55;;
51190;SDS011;37253;48.736;9.294;2023-06-22T09:51:38;8.68;;;3.08;;
51190;SDS011;37253;48.736;9.294;2023-06-22T09:53:39;11.23;;;3.60;;
51190;SDS011;37253;48.736;9.294;2023-06-22T09:55:39;5.90;;;3.63;;
51190;SDS011;37253;48.736;9.294;2023-06-22T09:57:39;9.15;;;3.65;;
51190;SDS011;37253;48.736;9.294;2023-06-22T09:59:40;7.60;;;3.75;;
51190;SDS011;37253;48.736;9.294;2023-06-22T10:01:41;6.53;;;3.72;;
51190;SDS011;37253;48.736;9.294;2023-06-22T10:03:41;8.93;;;3.63;;
51190;SDS011;37253;48.736;9.294;2023-06-22T10:05:41;5.45;;;3.33;;
51190;SDS011;37253;48.736;9.294;2023-06-22T10:07:42;5.07;;;3.08;;
51190;SDS011;37253;48.736;9.294;2023-06-22T10:09:43;7.07;;;3.75;;
51190;SDS011;37253;48.736;9.294;2023-06-22T10:11:43;9.55;;;3.75;;
51190;SDS011;37253;48.736;9.294;2023-06-22T10:13:43;5.45;;;3.97;;
51190;SDS011;37253;48.736;9.294;2023-06-22T10:15:44;6.88;;;2.95;;
51190;SDS011;37253;48.736;9.294;2023-06-22T10:17:49;6.97;;;3.55;;
51190;SDS011;37253;48.736;9.294;2023-06-22T10:19:50;7.47;;;3.38;;
51190;SDS011;37253;48.736;9.294;2023-06-22T10:21:50;6.22;;;3.85;;
51190;SDS011;37253;48.736;9.294;2023-06-22T10:23:50;6.50;;;3.60;;
51190;SDS011;37253;48.736;9.294;2023-06-22T10:25:50;4.78;;;3.58;;
51190;SDS011;37253;48.736;9.294;2023-06-22T10:27:51;8.48;;;4.30;;
51190;SDS011;37253;48.736;9.294;2023-06-22T10:29:51;7.88;;;3.75;;
51190;SDS011;37253;48.736;9.294;2023-06-22T10:31:52;6.15;;;3.97;;
51190;SDS011;37253;48.736;9.294;2023-06-22T10:33:52;8.45;;;3.13;;
51190;SDS011;37253;48.736;9.294;2023-06-22T10:35:53;3.83;;;3.38;;
51190;SDS011;37253;48.736;9.294;2023-06-22T10:37:54;6.35;;;4.05;;
51190;SDS011;37253;48.736;9.294;2023-06-22T10:39:56;7.43;;;3.70;;
51190;SDS011;37253;48.736;9.294;2023-06-22T10:41:56;7.43;;;3.35;;
51190;SDS011;37253;48.736;9.294;2023-06-22T10:43:56;8.13;;;3.80;;
51190;SDS011;37253;48.736;9.294;2023-06-22T10:45:57;8.38;;;3.83;;
51190;SDS011;37253;48.736;9.294;2023-06-22T10:47:57;5.13;;;3.63;;
51190;SDS011;37253;48.736;9.294;2023-06-22T10:49:57;6.70;;;4.07;;
51190;SDS011;37253;48.736;9.294;2023-06-22T10:51:58;4.57;;;3.72;;
51190;SDS011;37253;48.736;9.294;2023-06-22T10:53:58;6.47;;;4.15;;
51190;SDS011;37253;48.736;9.294;2023-06-22T10:55:58;7.15;;;3.80;;
51190;SDS011;37253;48.736;9.294;2023-06-22T10:57:59;5.93;;;3.92;;
51190;SDS011;37253;48.736;9.294;2023-06-22T10:59:59;6.70;;;3.67;;
51190;SDS011;37253;48.736;9.294;2023-06-22T11:01:59;7.05;;;3.78;;
51190;SDS011;37253;48.736;9.294;2023-06-22T11:04:00;6.18;;;3.40;;
51190;SDS011;37253;48.736;9.294;2023-06-22T11:06:00;6.40;;;4.22;;
51190;SDS011;37253;48.736;9.294;2023-06-22T11:08:00;8.18;;;4.05;;
51190;SDS011;37253;48.736;9.294;2023-06-22T11:10:01;5.95;;;3.75;;
51190;SDS011;37253;48.736;9.294;2023-06-22T11:12:01;7.43;;;3.05;;
51190;SDS011;37253;48.736;9.294;2023-06-22T11:14:01;8.45;;;4.13;;
51190;SDS011;37253;48.736;9.294;2023-06-22T11:16:02;7.47;;;3.88;;
51190;SDS011;37253;48.736;9.294;2023-06-22T11:18:02;7.50;;;4.00;;
51190;SDS011;37253;48.736;9.294;2023-06-22T11:20:05;6.78;;;4.22;;
51190;SDS011;37253;48.736;9.294;2023-06-22T11:22:10;7.85;;;3.97;;
51190;SDS011;37253;48.736;9.294;2023-06-22T11:24:10;6.50;;;3.92;;
51190;SDS011;37253;48.736;9.294;2023-06-22T11:26:11;6.00;;;3.60;;
51190;SDS011;37253;48.736;9.294;2023-06-22T11:28:11;7.60;;;3.60;;
51190;SDS011;37253;48.736;9.294;2023-06-22T11:30:11;7.20;;;3.85;;
51190;SDS011;37253;48.736;9.294;2023-06-22T11:32:12;7.97;;;3.95;;
51190;SDS011;37253;48.736;9.294;2023-06-22T11:34:12;5.60;;;3.63;;
51190;SDS011;37253;48.736;9.294;2023-06-22T11:36:12;6.07;;;4.10;;
51190;SDS011;37253;48.736;9.294;2023-06-22T11:38:14;4.93;;;4.00;;
51190;SDS011;37253;48.736;9.294;2023-06-22T11:40:14;5.75;;;3.47;;
51190;SDS011;37253;48.736;9.294;2023-06-22T11:42:14;6.95;;;4.15;;
51190;SDS011;37253;48.736;9.294;2023-06-22T11:44:15;8.05;;;3.80;;
51190;SDS011;37253;48.736;9.294;2023-06-22T11:46:15;5.60;;;3.92;;
51190;SDS011;37253;48.736;9.294;2023-06-22T11:48:15;6.60;;;3.80;;
51190;SDS011;37253;48.736;9.294;2023-06-22T11:50:16;8.93;;;3.95;;
51190;SDS011;37253;48.736;9.294;2023-06-22T11:52:16;8.55;;;4.15;;
51190;SDS011;37253;48.736;9.294;2023-06-22T11:54:17;8.85;;;4.32;;
51190;SDS011;37253;48.736;9.294;2023-06-22T11:56:18;9.52;;;4.10;;
51190;SDS011;37253;48.736;9.294;2023-06-22T11:58:18;5.75;;;3.80;;
51190;SDS011;37253;48.736;9.294;2023-06-22T12:00:18;7.05;;;3.80;;
51190;SDS011;37253;48.736;9.294;2023-06-22T12:02:19;5.32;;;4.03;;
51190;SDS011;37253;48.736;9.294;2023-06-22T12:04:19;8.85;;;3.85;;
51190;SDS011;37253;48.736;9.294;2023-06-22T12:06:20;8.18;;;4.45;;
51190;SDS011;37253;48.736;9.294;2023-06-22T12:08:20;8.85;;;4.25;;
51190;SDS011;37253;48.736;9.294;2023-06-22T12:10:24;7.95;;;4.40;;
51190;SDS011;37253;48.736;9.294;2023-06-22T12:12:25;7.68;;;4.10;;
51190;SDS011;37253;48.736;9.294;2023-06-22T12:14:25;8.88;;;4.05;;
51190;SDS011;37253;48.736;9.294;2023-06-22T12:16:26;9.38;;;4.18;;